sensor_id;sensor_type;location;lat;lon;timestamp;P1;durP1;ratioP1;P2;durP2;ratioP2
819;SDS011;392;48.838;2.322;2024-02-16T00:00:11;6.03;;;5.50;;
819;SDS011;392;48.838;2.322;2024-02-16T00:02:41;5.23;;;4.83;;
819;SDS011;392;48.838;2.322;2024-02-16T00:05:09;5.13;;;4.83;;
819;SDS011;392;48.838;2.322;2024-02-16T00:07:37;4.50;;;4.10;;
819;SDS011;392;48.838;2.322;2024-02-16T00:10:05;5.50;;;5.10;;
819;SDS011;392;48.838;2.322;2024-02-16T00:12:36;4.90;;;4.60;;
819;SDS011;392;48.838;2.322;2024-02-16T00:15:05;4.50;;;3.97;;
819;SDS011;392;48.838;2.322;2024-02-16T00:17:33;5.37;;;4.87;;
819;SDS011;392;48.838;2.322;2024-02-16T00:20:00;4.60;;;4.30;;
819;SDS011;392;48.838;2.322;2024-02-16T00:22:28;4.60;;;4.30;;
819;SDS011;392;48.838;2.322;2024-02-16T00:24:56;4.43;;;4.13;;
819;SDS011;392;48.838;2.322;2024-02-16T00:27:23;5.13;;;4.53;;
819;SDS011;392;48.838;2.322;2024-02-16T00:29:51;4.20;;;3.90;;
819;SDS011;392;48.838;2.322;2024-02-16T00:32:19;4.33;;;4.00;;
819;SDS011;392;48.838;2.322;2024-02-16T00:34:49;4.03;;;3.73;;
819;SDS011;392;48.838;2.322;2024-02-16T00:37:18;4.17;;;3.87;;
819;SDS011;392;48.838;2.322;2024-02-16T00:39:46;4.53;;;4.13;;
819;SDS011;392;48.838;2.322;2024-02-16T00:42:13;3.83;;;3.60;;
819;SDS011;392;48.838;2.322;2024-02-16T00:44:40;4.37;;;3.97;;
819;SDS011;392;48.838;2.322;2024-02-16T00:47:09;4.77;;;4.37;;
819;SDS011;392;48.838;2.322;2024-02-16T00:49:36;4.03;;;3.73;;
819;SDS011;392;48.838;2.322;2024-02-16T00:52:03;4.83;;;4.43;;
819;SDS011;392;48.838;2.322;2024-02-16T00:54:31;3.90;;;3.60;;
819;SDS011;392;48.838;2.322;2024-02-16T00:56:58;4.10;;;3.80;;
819;SDS011;392;48.838;2.322;2024-02-16T00:59:27;4.27;;;3.87;;
819;SDS011;392;48.838;2.322;2024-02-16T01:01:55;4.33;;;3.93;;
819;SDS011;392;48.838;2.322;2024-02-16T01:04:23;4.03;;;3.73;;
819;SDS011;392;48.838;2.322;2024-02-16T01:06:50;3.97;;;3.60;;
819;SDS011;392;48.838;2.322;2024-02-16T01:09:17;3.90;;;3.60;;
819;SDS011;392;48.838;2.322;2024-02-16T01:11:45;3.40;;;3.20;;
819;SDS011;392;48.838;2.322;2024-02-16T01:14:12;4.03;;;3.73;;
819;SDS011;392;48.838;2.322;2024-02-16T01:16:41;5.97;;;5.37;;
819;SDS011;392;48.838;2.322;2024-02-16T01:19:08;4.00;;;3.70;;
819;SDS011;392;48.838;2.322;2024-02-16T01:21:36;4.30;;;3.90;;
819;SDS011;392;48.838;2.322;2024-02-16T01:24:04;4.70;;;4.30;;
819;SDS011;392;48.838;2.322;2024-02-16T01:26:32;4.30;;;3.90;;
819;SDS011;392;48.838;2.322;2024-02-16T01:28:59;4.13;;;3.80;;
819;SDS011;392;48.838;2.322;2024-02-16T01:31:27;4.00;;;3.73;;
819;SDS011;392;48.838;2.322;2024-02-16T01:33:54;3.83;;;3.60;;
819;SDS011;392;48.838;2.322;2024-02-16T01:36:21;6.07;;;3.40;;
819;SDS011;392;48.838;2.322;2024-02-16T01:38:50;4.50;;;3.80;;
819;SDS011;392;48.838;2.322;2024-02-16T01:41:17;4.43;;;4.03;;
819;SDS011;392;48.838;2.322;2024-02-16T01:43:44;4.27;;;3.97;;
819;SDS011;392;48.838;2.322;2024-02-16T01:46:11;3.70;;;3.47;;
819;SDS011;392;48.838;2.322;2024-02-16T01:48:39;4.20;;;3.90;;
819;SDS011;392;48.838;2.322;2024-02-16T01:51:06;4.47;;;4.07;;
819;SDS011;392;48.838;2.322;2024-02-16T01:53:35;4.43;;;4.13;;
819;SDS011;392;48.838;2.322;2024-02-16T01:56:04;4.33;;;4.03;;
819;SDS011;392;48.838;2.322;2024-02-16T01:58:33;4.93;;;3.93;;
819;SDS011;392;48.838;2.322;2024-02-16T02:01:00;5.77;;;4.37;;
819;SDS011;392;48.838;2.322;2024-02-16T02:03:28;3.87;;;3.60;;
819;SDS011;392;48.838;2.322;2024-02-16T02:05:55;4.33;;;4.03;;
819;SDS011;392;48.838;2.322;2024-02-16T02:08:23;5.90;;;4.57;;
819;SDS011;392;48.838;2.322;2024-02-16T02:10:52;4.63;;;4.23;;
819;SDS011;392;48.838;2.322;2024-02-16T02:13:20;4.50;;;4.20;;
819;SDS011;392;48.838;2.322;2024-02-16T02:15:48;5.23;;;4.23;;
819;SDS011;392;48.838;2.322;2024-02-16T02:18:15;4.03;;;3.73;;
819;SDS011;392;48.838;2.322;2024-02-16T02:20:43;4.40;;;4.00;;
819;SDS011;392;48.838;2.322;2024-02-16T02:23:12;4.37;;;4.07;;
819;SDS011;392;48.838;2.322;2024-02-16T02:25:39;4.20;;;3.90;;
819;SDS011;392;48.838;2.322;2024-02-16T02:28:06;4.77;;;4.23;;
819;SDS011;392;48.838;2.322;2024-02-16T02:30:34;4.20;;;3.83;;
819;SDS011;392;48.838;2.322;2024-02-16T02:33:03;4.30;;;4.00;;
819;SDS011;392;48.838;2.322;2024-02-16T02:35:31;4.67;;;4.27;;
819;SDS011;392;48.838;2.322;2024-02-16T02:37:58;4.97;;;3.90;;
819;SDS011;392;48.838;2.322;2024-02-16T02:40:26;4.37;;;4.07;;
819;SDS011;392;48.838;2.322;2024-02-16T02:42:53;5.43;;;4.30;;
819;SDS011;392;48.838;2.322;2024-02-16T02:45:21;4.40;;;4.00;;
819;SDS011;392;48.838;2.322;2024-02-16T02:47:48;4.93;;;4.53;;
819;SDS011;392;48.838;2.322;2024-02-16T02:50:15;5.17;;;4.30;;
819;SDS011;392;48.838;2.322;2024-02-16T02:52:43;6.80;;;4.67;;
819;SDS011;392;48.838;2.322;2024-02-16T02:55:11;4.50;;;4.20;;
819;SDS011;392;48.838;2.322;2024-02-16T02:57:39;4.13;;;3.83;;
819;SDS011;392;48.838;2.322;2024-02-16T03:00:07;4.27;;;3.97;;
819;SDS011;392;48.838;2.322;2024-02-16T03:02:36;4.13;;;3.83;;
819;SDS011;392;48.838;2.322;2024-02-16T03:05:04;5.20;;;4.17;;
819;SDS011;392;48.838;2.322;2024-02-16T03:07:33;4.50;;;4.10;;
819;SDS011;392;48.838;2.322;2024-02-16T03:10:01;4.27;;;3.90;;
819;SDS011;392;48.838;2.322;2024-02-16T03:12:29;5.77;;;4.30;;
819;SDS011;392;48.838;2.322;2024-02-16T03:14:59;4.63;;;4.23;;
819;SDS011;392;48.838;2.322;2024-02-16T03:17:26;4.53;;;4.23;;
819;SDS011;392;48.838;2.322;2024-02-16T03:19:54;5.10;;;4.70;;
819;SDS011;392;48.838;2.322;2024-02-16T03:22:21;4.30;;;4.00;;
819;SDS011;392;48.838;2.322;2024-02-16T03:24:49;5.80;;;4.53;;
819;SDS011;392;48.838;2.322;2024-02-16T03:27:16;4.43;;;4.13;;
819;SDS011;392;48.838;2.322;2024-02-16T03:29:43;4.23;;;3.93;;
819;SDS011;392;48.838;2.322;2024-02-16T03:32:12;4.60;;;4.20;;
819;SDS011;392;48.838;2.322;2024-02-16T03:34:39;4.37;;;4.07;;
819;SDS011;392;48.838;2.322;2024-02-16T03:37:06;4.20;;;4.00;;
819;SDS011;392;48.838;2.322;2024-02-16T03:39:34;4.43;;;4.10;;
819;SDS011;392;48.838;2.322;2024-02-16T03:42:02;3.80;;;3.50;;
819;SDS011;392;48.838;2.322;2024-02-16T03:44:29;4.70;;;4.40;;
819;SDS011;392;48.838;2.322;2024-02-16T03:46:57;4.50;;;4.10;;
819;SDS011;392;48.838;2.322;2024-02-16T03:49:26;4.60;;;4.10;;
819;SDS011;392;48.838;2.322;2024-02-16T03:51:54;4.33;;;4.03;;
819;SDS011;392;48.838;2.322;2024-02-16T03:54:21;4.50;;;4.20;;
819;SDS011;392;48.838;2.322;2024-02-16T03:56:48;3.90;;;3.60;;
819;SDS011;392;48.838;2.322;2024-02-16T03:59:20;4.93;;;3.93;;
819;SDS011;392;48.838;2.322;2024-02-16T04:01:47;4.57;;;4.17;;
819;SDS011;392;48.838;2.322;2024-02-16T04:04:14;4.27;;;3.87;;
819;SDS011;392;48.838;2.322;2024-02-16T04:06:43;4.73;;;4.33;;
819;SDS011;392;48.838;2.322;2024-02-16T04:09:10;4.47;;;4.07;;
819;SDS011;392;48.838;2.322;2024-02-16T04:11:37;4.67;;;4.20;;
819;SDS011;392;48.838;2.322;2024-02-16T04:14:05;5.10;;;4.17;;
819;SDS011;392;48.838;2.322;2024-02-16T04:16:33;4.33;;;3.93;;
819;SDS011;392;48.838;2.322;2024-02-16T04:19:00;4.40;;;4.00;;
819;SDS011;392;48.838;2.322;2024-02-16T04:21:27;4.37;;;4.07;;
819;SDS011;392;48.838;2.322;2024-02-16T04:23:56;6.27;;;4.07;;
819;SDS011;392;48.838;2.322;2024-02-16T04:26:23;4.57;;;4.27;;
819;SDS011;392;48.838;2.322;2024-02-16T04:28:50;4.63;;;4.20;;
819;SDS011;392;48.838;2.322;2024-02-16T04:31:17;5.30;;;4.33;;
819;SDS011;392;48.838;2.322;2024-02-16T04:33:45;4.73;;;4.30;;
819;SDS011;392;48.838;2.322;2024-02-16T04:36:12;4.30;;;4.00;;
819;SDS011;392;48.838;2.322;2024-02-16T04:38:40;5.03;;;4.63;;
819;SDS011;392;48.838;2.322;2024-02-16T04:41:09;4.90;;;4.50;;
819;SDS011;392;48.838;2.322;2024-02-16T04:43:36;4.60;;;4.27;;
819;SDS011;392;48.838;2.322;2024-02-16T04:46:04;4.57;;;3.70;;
819;SDS011;392;48.838;2.322;2024-02-16T04:48:31;4.80;;;4.30;;
819;SDS011;392;48.838;2.322;2024-02-16T04:50:59;4.10;;;3.70;;
819;SDS011;392;48.838;2.322;2024-02-16T04:53:27;4.20;;;3.90;;
819;SDS011;392;48.838;2.322;2024-02-16T04:55:54;4.30;;;4.00;;
819;SDS011;392;48.838;2.322;2024-02-16T04:58:22;7.27;;;4.53;;
819;SDS011;392;48.838;2.322;2024-02-16T05:00:49;4.80;;;4.40;;
819;SDS011;392;48.838;2.322;2024-02-16T05:03:17;4.10;;;3.80;;
819;SDS011;392;48.838;2.322;2024-02-16T05:05:44;4.80;;;4.40;;
819;SDS011;392;48.838;2.322;2024-02-16T05:08:12;5.47;;;5.07;;
819;SDS011;392;48.838;2.322;2024-02-16T05:10:39;4.80;;;4.40;;
819;SDS011;392;48.838;2.322;2024-02-16T05:13:06;5.33;;;4.80;;
819;SDS011;392;48.838;2.322;2024-02-16T05:15:35;5.13;;;4.37;;
819;SDS011;392;48.838;2.322;2024-02-16T05:18:02;4.73;;;4.33;;
819;SDS011;392;48.838;2.322;2024-02-16T05:20:30;4.70;;;4.30;;
819;SDS011;392;48.838;2.322;2024-02-16T05:22:57;4.93;;;4.33;;
819;SDS011;392;48.838;2.322;2024-02-16T05:25:24;6.50;;;4.33;;
819;SDS011;392;48.838;2.322;2024-02-16T05:27:51;5.10;;;4.70;;
819;SDS011;392;48.838;2.322;2024-02-16T05:30:19;5.27;;;4.77;;
819;SDS011;392;48.838;2.322;2024-02-16T05:32:47;8.03;;;5.80;;
819;SDS011;392;48.838;2.322;2024-02-16T05:35:14;5.13;;;4.63;;
819;SDS011;392;48.838;2.322;2024-02-16T05:37:43;5.20;;;4.77;;
819;SDS011;392;48.838;2.322;2024-02-16T05:40:14;5.13;;;4.60;;
819;SDS011;392;48.838;2.322;2024-02-16T05:42:50;4.50;;;4.10;;
819;SDS011;392;48.838;2.322;2024-02-16T05:45:18;5.23;;;4.77;;
819;SDS011;392;48.838;2.322;2024-02-16T05:47:48;5.30;;;4.83;;
819;SDS011;392;48.838;2.322;2024-02-16T05:50:16;6.03;;;4.77;;
819;SDS011;392;48.838;2.322;2024-02-16T05:52:44;5.90;;;5.30;;
819;SDS011;392;48.838;2.322;2024-02-16T05:55:11;5.00;;;4.60;;
819;SDS011;392;48.838;2.322;2024-02-16T05:57:38;5.43;;;4.93;;
819;SDS011;392;48.838;2.322;2024-02-16T06:00:07;6.67;;;4.73;;
819;SDS011;392;48.838;2.322;2024-02-16T06:02:36;5.53;;;5.00;;
819;SDS011;392;48.838;2.322;2024-02-16T06:05:05;5.80;;;4.57;;
819;SDS011;392;48.838;2.322;2024-02-16T06:07:34;5.57;;;4.50;;
819;SDS011;392;48.838;2.322;2024-02-16T06:10:04;4.60;;;4.20;;
819;SDS011;392;48.838;2.322;2024-02-16T06:12:36;6.43;;;5.10;;
819;SDS011;392;48.838;2.322;2024-02-16T06:15:03;5.17;;;4.67;;
819;SDS011;392;48.838;2.322;2024-02-16T06:17:31;6.20;;;4.60;;
819;SDS011;392;48.838;2.322;2024-02-16T06:19:59;4.67;;;4.23;;
819;SDS011;392;48.838;2.322;2024-02-16T06:22:29;5.20;;;4.80;;
819;SDS011;392;48.838;2.322;2024-02-16T06:24:57;5.00;;;4.50;;
819;SDS011;392;48.838;2.322;2024-02-16T06:27:24;7.83;;;4.10;;
819;SDS011;392;48.838;2.322;2024-02-16T06:29:52;8.80;;;4.80;;
819;SDS011;392;48.838;2.322;2024-02-16T06:32:19;4.63;;;4.23;;
819;SDS011;392;48.838;2.322;2024-02-16T06:34:46;4.97;;;4.50;;
819;SDS011;392;48.838;2.322;2024-02-16T06:37:13;5.87;;;4.80;;
819;SDS011;392;48.838;2.322;2024-02-16T06:39:42;5.93;;;4.23;;
819;SDS011;392;48.838;2.322;2024-02-16T06:42:09;5.83;;;5.00;;
819;SDS011;392;48.838;2.322;2024-02-16T06:44:37;5.40;;;4.77;;
819;SDS011;392;48.838;2.322;2024-02-16T06:47:05;5.70;;;4.33;;
819;SDS011;392;48.838;2.322;2024-02-16T06:49:32;5.80;;;5.20;;
819;SDS011;392;48.838;2.322;2024-02-16T06:51:59;5.40;;;4.40;;
819;SDS011;392;48.838;2.322;2024-02-16T06:54:26;7.70;;;4.40;;
819;SDS011;392;48.838;2.322;2024-02-16T06:56:55;5.37;;;4.10;;
819;SDS011;392;48.838;2.322;2024-02-16T06:59:22;7.97;;;4.80;;
819;SDS011;392;48.838;2.322;2024-02-16T07:01:49;4.93;;;3.70;;
819;SDS011;392;48.838;2.322;2024-02-16T07:04:16;7.67;;;4.60;;
819;SDS011;392;48.838;2.322;2024-02-16T07:06:43;4.50;;;4.10;;
819;SDS011;392;48.838;2.322;2024-02-16T07:09:10;7.00;;;4.23;;
819;SDS011;392;48.838;2.322;2024-02-16T07:11:40;5.07;;;4.40;;
819;SDS011;392;48.838;2.322;2024-02-16T07:14:09;4.67;;;4.27;;
819;SDS011;392;48.838;2.322;2024-02-16T07:16:36;4.93;;;3.53;;
819;SDS011;392;48.838;2.322;2024-02-16T07:19:03;6.20;;;3.63;;
819;SDS011;392;48.838;2.322;2024-02-16T07:21:30;4.17;;;3.77;;
819;SDS011;392;48.838;2.322;2024-02-16T07:23:57;4.50;;;3.60;;
819;SDS011;392;48.838;2.322;2024-02-16T07:26:25;3.33;;;3.03;;
819;SDS011;392;48.838;2.322;2024-02-16T07:28:52;6.20;;;3.63;;
819;SDS011;392;48.838;2.322;2024-02-16T07:31:20;3.43;;;3.13;;
819;SDS011;392;48.838;2.322;2024-02-16T07:33:47;3.90;;;3.17;;
819;SDS011;392;48.838;2.322;2024-02-16T07:36:15;5.80;;;3.60;;
819;SDS011;392;48.838;2.322;2024-02-16T07:38:44;3.73;;;3.40;;
819;SDS011;392;48.838;2.322;2024-02-16T07:41:11;3.60;;;3.13;;
819;SDS011;392;48.838;2.322;2024-02-16T07:43:38;4.03;;;3.60;;
819;SDS011;392;48.838;2.322;2024-02-16T07:46:06;3.50;;;3.00;;
819;SDS011;392;48.838;2.322;2024-02-16T07:48:34;3.73;;;3.43;;
819;SDS011;392;48.838;2.322;2024-02-16T07:51:02;4.67;;;3.70;;
819;SDS011;392;48.838;2.322;2024-02-16T07:53:30;5.60;;;3.37;;
819;SDS011;392;48.838;2.322;2024-02-16T07:55:58;4.10;;;3.30;;
819;SDS011;392;48.838;2.322;2024-02-16T07:58:26;4.90;;;3.10;;
819;SDS011;392;48.838;2.322;2024-02-16T08:00:53;3.77;;;2.73;;
819;SDS011;392;48.838;2.322;2024-02-16T08:03:20;6.07;;;3.07;;
819;SDS011;392;48.838;2.322;2024-02-16T08:05:49;4.13;;;2.93;;
819;SDS011;392;48.838;2.322;2024-02-16T08:08:16;2.90;;;2.70;;
819;SDS011;392;48.838;2.322;2024-02-16T08:10:43;3.00;;;2.57;;
819;SDS011;392;48.838;2.322;2024-02-16T08:13:11;3.70;;;2.60;;
819;SDS011;392;48.838;2.322;2024-02-16T08:15:39;2.70;;;2.53;;
819;SDS011;392;48.838;2.322;2024-02-16T08:18:06;5.67;;;2.77;;
819;SDS011;392;48.838;2.322;2024-02-16T08:20:33;4.13;;;2.70;;
819;SDS011;392;48.838;2.322;2024-02-16T08:23:03;4.23;;;2.40;;
819;SDS011;392;48.838;2.322;2024-02-16T08:25:30;2.73;;;2.23;;
819;SDS011;392;48.838;2.322;2024-02-16T08:27:58;2.90;;;2.33;;
819;SDS011;392;48.838;2.322;2024-02-16T08:30:25;4.17;;;2.60;;
819;SDS011;392;48.838;2.322;2024-02-16T08:32:53;3.47;;;2.40;;
819;SDS011;392;48.838;2.322;2024-02-16T08:35:21;4.43;;;2.30;;
819;SDS011;392;48.838;2.322;2024-02-16T08:37:48;2.10;;;2.00;;
819;SDS011;392;48.838;2.322;2024-02-16T08:40:17;2.30;;;2.10;;
819;SDS011;392;48.838;2.322;2024-02-16T08:42:44;3.47;;;2.43;;
819;SDS011;392;48.838;2.322;2024-02-16T08:45:12;2.90;;;1.90;;
819;SDS011;392;48.838;2.322;2024-02-16T08:47:42;3.37;;;2.30;;
819;SDS011;392;48.838;2.322;2024-02-16T08:50:10;4.00;;;2.10;;
819;SDS011;392;48.838;2.322;2024-02-16T08:52:37;3.47;;;2.07;;
819;SDS011;392;48.838;2.322;2024-02-16T08:55:05;3.53;;;2.40;;
819;SDS011;392;48.838;2.322;2024-02-16T08:57:34;2.00;;;1.90;;
819;SDS011;392;48.838;2.322;2024-02-16T09:00:02;2.00;;;1.90;;
819;SDS011;392;48.838;2.322;2024-02-16T09:02:30;2.40;;;1.80;;
819;SDS011;392;48.838;2.322;2024-02-16T09:04:57;3.50;;;2.23;;
819;SDS011;392;48.838;2.322;2024-02-16T09:07:25;2.50;;;1.60;;
819;SDS011;392;48.838;2.322;2024-02-16T09:09:52;3.27;;;2.30;;
819;SDS011;392;48.838;2.322;2024-02-16T09:12:21;3.03;;;2.00;;
819;SDS011;392;48.838;2.322;2024-02-16T09:14:50;2.00;;;1.90;;
819;SDS011;392;48.838;2.322;2024-02-16T09:17:17;4.17;;;2.10;;
819;SDS011;392;48.838;2.322;2024-02-16T09:19:45;2.10;;;1.90;;
819;SDS011;392;48.838;2.322;2024-02-16T09:22:12;3.00;;;2.20;;
819;SDS011;392;48.838;2.322;2024-02-16T09:24:40;2.27;;;2.17;;
819;SDS011;392;48.838;2.322;2024-02-16T09:27:07;2.70;;;1.80;;
819;SDS011;392;48.838;2.322;2024-02-16T09:29:35;4.30;;;1.90;;
819;SDS011;392;48.838;2.322;2024-02-16T09:32:04;3.00;;;2.27;;
819;SDS011;392;48.838;2.322;2024-02-16T09:34:32;1.90;;;1.57;;
819;SDS011;392;48.838;2.322;2024-02-16T09:36:59;2.60;;;2.10;;
819;SDS011;392;48.838;2.322;2024-02-16T09:39:26;3.43;;;3.07;;
819;SDS011;392;48.838;2.322;2024-02-16T09:41:54;3.00;;;1.97;;
819;SDS011;392;48.838;2.322;2024-02-16T09:44:21;1.90;;;1.80;;
819;SDS011;392;48.838;2.322;2024-02-16T09:46:49;4.10;;;2.73;;
819;SDS011;392;48.838;2.322;2024-02-16T09:49:20;2.23;;;1.80;;
819;SDS011;392;48.838;2.322;2024-02-16T09:51:47;3.03;;;2.03;;
819;SDS011;392;48.838;2.322;2024-02-16T09:54:15;2.10;;;1.80;;
819;SDS011;392;48.838;2.322;2024-02-16T09:56:42;3.13;;;2.03;;
819;SDS011;392;48.838;2.322;2024-02-16T09:59:11;22.80;;;17.73;;
819;SDS011;392;48.838;2.322;2024-02-16T10:01:38;4.70;;;2.50;;
819;SDS011;392;48.838;2.322;2024-02-16T10:04:05;2.70;;;2.40;;
819;SDS011;392;48.838;2.322;2024-02-16T10:06:45;4.10;;;2.33;;
819;SDS011;392;48.838;2.322;2024-02-16T10:09:22;3.50;;;2.00;;
819;SDS011;392;48.838;2.322;2024-02-16T10:11:50;2.57;;;2.20;;
819;SDS011;392;48.838;2.322;2024-02-16T10:14:17;2.13;;;1.90;;
819;SDS011;392;48.838;2.322;2024-02-16T10:16:45;3.93;;;2.30;;
819;SDS011;392;48.838;2.322;2024-02-16T10:19:13;3.73;;;2.90;;
819;SDS011;392;48.838;2.322;2024-02-16T10:21:40;2.50;;;2.13;;
819;SDS011;392;48.838;2.322;2024-02-16T10:24:09;2.50;;;2.30;;
819;SDS011;392;48.838;2.322;2024-02-16T10:26:40;2.80;;;2.60;;
819;SDS011;392;48.838;2.322;2024-02-16T10:29:08;6.13;;;3.50;;
819;SDS011;392;48.838;2.322;2024-02-16T10:31:36;4.30;;;2.50;;
819;SDS011;392;48.838;2.322;2024-02-16T10:34:04;4.10;;;3.70;;
819;SDS011;392;48.838;2.322;2024-02-16T10:36:35;3.70;;;3.50;;
819;SDS011;392;48.838;2.322;2024-02-16T10:39:04;4.30;;;4.00;;
819;SDS011;392;48.838;2.322;2024-02-16T10:41:37;4.83;;;4.50;;
819;SDS011;392;48.838;2.322;2024-02-16T10:44:07;7.03;;;5.53;;
819;SDS011;392;48.838;2.322;2024-02-16T10:46:34;6.80;;;6.20;;
819;SDS011;392;48.838;2.322;2024-02-16T10:49:01;7.23;;;6.63;;
819;SDS011;392;48.838;2.322;2024-02-16T10:51:31;7.90;;;7.20;;
819;SDS011;392;48.838;2.322;2024-02-16T10:54:03;9.47;;;8.57;;
819;SDS011;392;48.838;2.322;2024-02-16T10:56:32;8.60;;;8.00;;
819;SDS011;392;48.838;2.322;2024-02-16T10:59:05;9.03;;;8.33;;
819;SDS011;392;48.838;2.322;2024-02-16T11:01:37;9.40;;;8.60;;
819;SDS011;392;48.838;2.322;2024-02-16T11:04:05;10.03;;;9.23;;
819;SDS011;392;48.838;2.322;2024-02-16T11:06:44;11.03;;;10.07;;
819;SDS011;392;48.838;2.322;2024-02-16T11:09:27;10.83;;;9.93;;
819;SDS011;392;48.838;2.322;2024-02-16T11:11:58;11.60;;;10.40;;
819;SDS011;392;48.838;2.322;2024-02-16T11:14:35;11.83;;;10.63;;
819;SDS011;392;48.838;2.322;2024-02-16T11:17:07;12.20;;;11.10;;
819;SDS011;392;48.838;2.322;2024-02-16T11:19:36;10.90;;;10.00;;
819;SDS011;392;48.838;2.322;2024-02-16T11:22:03;11.60;;;10.50;;
819;SDS011;392;48.838;2.322;2024-02-16T11:24:34;11.63;;;10.73;;
819;SDS011;392;48.838;2.322;2024-02-16T11:27:02;11.53;;;10.47;;
819;SDS011;392;48.838;2.322;2024-02-16T11:29:35;11.40;;;10.50;;
819;SDS011;392;48.838;2.322;2024-02-16T11:32:04;10.77;;;9.80;;
819;SDS011;392;48.838;2.322;2024-02-16T11:34:33;12.17;;;11.17;;
819;SDS011;392;48.838;2.322;2024-02-16T11:37:03;11.57;;;10.60;;
819;SDS011;392;48.838;2.322;2024-02-16T11:39:31;10.97;;;10.07;;
819;SDS011;392;48.838;2.322;2024-02-16T11:42:01;11.63;;;10.73;;
819;SDS011;392;48.838;2.322;2024-02-16T11:44:30;11.00;;;10.00;;
819;SDS011;392;48.838;2.322;2024-02-16T11:46:59;15.33;;;10.47;;
819;SDS011;392;48.838;2.322;2024-02-16T11:49:28;11.63;;;10.73;;
819;SDS011;392;48.838;2.322;2024-02-16T11:51:56;11.67;;;10.77;;
819;SDS011;392;48.838;2.322;2024-02-16T11:54:25;10.60;;;9.60;;
819;SDS011;392;48.838;2.322;2024-02-16T11:56:53;11.13;;;10.23;;
819;SDS011;392;48.838;2.322;2024-02-16T11:59:20;10.43;;;9.63;;
819;SDS011;392;48.838;2.322;2024-02-16T12:01:48;9.30;;;8.60;;
819;SDS011;392;48.838;2.322;2024-02-16T12:04:22;9.93;;;9.13;;
819;SDS011;392;48.838;2.322;2024-02-16T12:06:51;10.50;;;9.47;;
819;SDS011;392;48.838;2.322;2024-02-16T12:09:19;10.20;;;9.20;;
819;SDS011;392;48.838;2.322;2024-02-16T12:11:48;9.50;;;8.67;;
819;SDS011;392;48.838;2.322;2024-02-16T12:14:15;9.60;;;8.70;;
819;SDS011;392;48.838;2.322;2024-02-16T12:16:46;10.40;;;9.60;;
819;SDS011;392;48.838;2.322;2024-02-16T12:19:14;10.33;;;9.43;;
819;SDS011;392;48.838;2.322;2024-02-16T12:21:44;9.67;;;8.87;;
819;SDS011;392;48.838;2.322;2024-02-16T12:24:11;9.43;;;8.63;;
819;SDS011;392;48.838;2.322;2024-02-16T12:26:38;8.63;;;7.83;;
819;SDS011;392;48.838;2.322;2024-02-16T12:29:06;7.40;;;6.80;;
819;SDS011;392;48.838;2.322;2024-02-16T12:31:37;8.10;;;7.47;;
819;SDS011;392;48.838;2.322;2024-02-16T12:34:05;7.20;;;6.60;;
819;SDS011;392;48.838;2.322;2024-02-16T12:36:33;7.43;;;6.73;;
819;SDS011;392;48.838;2.322;2024-02-16T12:39:01;8.70;;;7.90;;
819;SDS011;392;48.838;2.322;2024-02-16T12:41:30;7.47;;;6.87;;
819;SDS011;392;48.838;2.322;2024-02-16T12:43:57;7.10;;;6.53;;
819;SDS011;392;48.838;2.322;2024-02-16T12:46:24;8.10;;;7.37;;
819;SDS011;392;48.838;2.322;2024-02-16T12:48:51;8.23;;;7.53;;
819;SDS011;392;48.838;2.322;2024-02-16T12:51:18;7.93;;;7.23;;
819;SDS011;392;48.838;2.322;2024-02-16T12:53:46;7.60;;;7.00;;
819;SDS011;392;48.838;2.322;2024-02-16T12:56:15;8.30;;;7.60;;
819;SDS011;392;48.838;2.322;2024-02-16T12:58:42;8.33;;;7.67;;
819;SDS011;392;48.838;2.322;2024-02-16T13:01:09;9.33;;;7.03;;
819;SDS011;392;48.838;2.322;2024-02-16T13:03:38;7.20;;;6.60;;
819;SDS011;392;48.838;2.322;2024-02-16T13:06:05;6.97;;;6.40;;
819;SDS011;392;48.838;2.322;2024-02-16T13:08:33;8.33;;;7.63;;
819;SDS011;392;48.838;2.322;2024-02-16T13:11:00;8.27;;;7.57;;
819;SDS011;392;48.838;2.322;2024-02-16T13:13:30;8.87;;;8.00;;
819;SDS011;392;48.838;2.322;2024-02-16T13:15:58;9.70;;;8.90;;
819;SDS011;392;48.838;2.322;2024-02-16T13:18:25;9.53;;;8.63;;
819;SDS011;392;48.838;2.322;2024-02-16T13:20:52;9.80;;;8.90;;
819;SDS011;392;48.838;2.322;2024-02-16T13:23:20;10.10;;;9.10;;
819;SDS011;392;48.838;2.322;2024-02-16T13:25:47;10.43;;;9.43;;
819;SDS011;392;48.838;2.322;2024-02-16T13:28:14;11.30;;;10.20;;
819;SDS011;392;48.838;2.322;2024-02-16T13:30:43;9.97;;;9.10;;
819;SDS011;392;48.838;2.322;2024-02-16T13:33:11;10.77;;;9.87;;
819;SDS011;392;48.838;2.322;2024-02-16T13:35:38;11.70;;;10.67;;
819;SDS011;392;48.838;2.322;2024-02-16T13:38:05;13.77;;;12.47;;
819;SDS011;392;48.838;2.322;2024-02-16T13:40:32;11.30;;;9.43;;
819;SDS011;392;48.838;2.322;2024-02-16T13:43:01;11.23;;;10.23;;
819;SDS011;392;48.838;2.322;2024-02-16T13:45:29;9.77;;;8.90;;
819;SDS011;392;48.838;2.322;2024-02-16T13:48:17;8.83;;;7.73;;
819;SDS011;392;48.838;2.322;2024-02-16T13:50:45;7.90;;;7.13;;
819;SDS011;392;48.838;2.322;2024-02-16T13:53:13;9.07;;;8.27;;
819;SDS011;392;48.838;2.322;2024-02-16T13:55:41;7.90;;;7.20;;
819;SDS011;392;48.838;2.322;2024-02-16T13:58:09;5.90;;;5.40;;
819;SDS011;392;48.838;2.322;2024-02-16T14:00:36;6.53;;;5.77;;
819;SDS011;392;48.838;2.322;2024-02-16T14:03:05;8.07;;;6.83;;
819;SDS011;392;48.838;2.322;2024-02-16T14:05:35;6.20;;;5.70;;
819;SDS011;392;48.838;2.322;2024-02-16T14:08:03;6.30;;;5.63;;
819;SDS011;392;48.838;2.322;2024-02-16T14:10:32;5.77;;;5.00;;
819;SDS011;392;48.838;2.322;2024-02-16T14:13:00;5.80;;;5.20;;
819;SDS011;392;48.838;2.322;2024-02-16T14:15:28;6.67;;;6.17;;
819;SDS011;392;48.838;2.322;2024-02-16T14:17:55;9.23;;;7.63;;
819;SDS011;392;48.838;2.322;2024-02-16T14:20:23;9.20;;;8.40;;
819;SDS011;392;48.838;2.322;2024-02-16T14:22:52;9.27;;;8.47;;
819;SDS011;392;48.838;2.322;2024-02-16T14:25:19;10.00;;;9.00;;
819;SDS011;392;48.838;2.322;2024-02-16T14:27:46;9.70;;;8.30;;
819;SDS011;392;48.838;2.322;2024-02-16T14:30:13;8.63;;;7.90;;
819;SDS011;392;48.838;2.322;2024-02-16T14:32:41;9.60;;;8.70;;
819;SDS011;392;48.838;2.322;2024-02-16T14:35:08;11.07;;;9.97;;
819;SDS011;392;48.838;2.322;2024-02-16T14:37:37;8.73;;;7.93;;
819;SDS011;392;48.838;2.322;2024-02-16T14:40:05;8.20;;;7.47;;
819;SDS011;392;48.838;2.322;2024-02-16T14:42:35;7.40;;;6.70;;
819;SDS011;392;48.838;2.322;2024-02-16T14:45:03;7.70;;;7.10;;
819;SDS011;392;48.838;2.322;2024-02-16T14:47:34;7.87;;;7.10;;
819;SDS011;392;48.838;2.322;2024-02-16T14:50:02;7.83;;;7.10;;
819;SDS011;392;48.838;2.322;2024-02-16T14:52:29;6.47;;;5.93;;
819;SDS011;392;48.838;2.322;2024-02-16T14:54:58;5.90;;;5.40;;
819;SDS011;392;48.838;2.322;2024-02-16T14:57:25;7.90;;;5.30;;
819;SDS011;392;48.838;2.322;2024-02-16T14:59:53;6.80;;;5.47;;
819;SDS011;392;48.838;2.322;2024-02-16T15:02:22;5.47;;;5.00;;
819;SDS011;392;48.838;2.322;2024-02-16T15:04:49;6.90;;;6.40;;
819;SDS011;392;48.838;2.322;2024-02-16T15:07:17;6.93;;;5.53;;
819;SDS011;392;48.838;2.322;2024-02-16T15:09:44;5.60;;;5.10;;
819;SDS011;392;48.838;2.322;2024-02-16T15:12:13;5.53;;;4.60;;
819;SDS011;392;48.838;2.322;2024-02-16T15:14:44;5.40;;;4.20;;
819;SDS011;392;48.838;2.322;2024-02-16T15:17:12;5.43;;;4.93;;
819;SDS011;392;48.838;2.322;2024-02-16T15:19:39;5.33;;;4.80;;
819;SDS011;392;48.838;2.322;2024-02-16T15:22:07;6.40;;;4.23;;
819;SDS011;392;48.838;2.322;2024-02-16T15:24:34;4.20;;;3.83;;
819;SDS011;392;48.838;2.322;2024-02-16T15:27:01;4.20;;;3.97;;
819;SDS011;392;48.838;2.322;2024-02-16T15:29:31;4.63;;;3.97;;
819;SDS011;392;48.838;2.322;2024-02-16T15:31:58;5.30;;;4.50;;
819;SDS011;392;48.838;2.322;2024-02-16T15:34:26;4.57;;;4.20;;
819;SDS011;392;48.838;2.322;2024-02-16T15:36:53;7.47;;;6.97;;
819;SDS011;392;48.838;2.322;2024-02-16T15:39:23;5.77;;;5.37;;
819;SDS011;392;48.838;2.322;2024-02-16T15:41:51;6.47;;;5.87;;
819;SDS011;392;48.838;2.322;2024-02-16T15:44:20;6.17;;;5.50;;
819;SDS011;392;48.838;2.322;2024-02-16T15:46:48;4.83;;;4.40;;